sensor_id;sensor_type;location;lat;lon;timestamp;P1;durP1;ratioP1;P2;durP2;ratioP2
79728;SDS011;69218;52.132;5.418;2023-08-07T00:01:54;4.22;;;0.55;;
79728;SDS011;69218;52.132;5.418;2023-08-07T00:04:21;4.55;;;0.73;;
79728;SDS011;69218;52.132;5.418;2023-08-07T00:06:48;3.15;;;0.73;;
79728;SDS011;69218;52.132;5.418;2023-08-07T00:09:14;2.40;;;0.50;;
79728;SDS011;69218;52.132;5.418;2023-08-07T00:11:41;4.47;;;0.82;;
79728;SDS011;69218;52.132;5.418;2023-08-07T00:14:07;4.45;;;0.70;;
79728;SDS011;69218;52.132;5.418;2023-08-07T00:16:34;4.78;;;0.52;;
79728;SDS011;69218;52.132;5.418;2023-08-07T00:19:01;5.82;;;0.70;;
79728;SDS011;69218;52.132;5.418;2023-08-07T00:21:28;3.05;;;0.75;;
79728;SDS011;69218;52.132;5.418;2023-08-07T00:23:55;6.78;;;0.70;;
79728;SDS011;69218;52.132;5.418;2023-08-07T00:26:21;5.38;;;0.73;;
79728;SDS011;69218;52.132;5.418;2023-08-07T00:28:48;4.13;;;0.70;;
79728;SDS011;69218;52.132;5.418;2023-08-07T00:31:14;4.95;;;0.60;;
79728;SDS011;69218;52.132;5.418;2023-08-07T00:33:41;5.38;;;1.00;;
79728;SDS011;69218;52.132;5.418;2023-08-07T00:36:07;3.00;;;0.73;;
79728;SDS011;69218;52.132;5.418;2023-08-07T00:38:34;4.60;;;1.10;;
79728;SDS011;69218;52.132;5.418;2023-08-07T00:41:01;6.53;;;0.90;;
79728;SDS011;69218;52.132;5.418;2023-08-07T00:43:27;7.68;;;0.80;;
79728;SDS011;69218;52.132;5.418;2023-08-07T00:45:54;3.15;;;0.90;;
79728;SDS011;69218;52.132;5.418;2023-08-07T00:48:20;4.60;;;0.80;;
79728;SDS011;69218;52.132;5.418;2023-08-07T00:50:47;4.95;;;1.08;;
79728;SDS011;69218;52.132;5.418;2023-08-07T00:53:15;4.93;;;0.90;;
79728;SDS011;69218;52.132;5.418;2023-08-07T00:55:42;5.50;;;0.82;;
79728;SDS011;69218;52.132;5.418;2023-08-07T00:58:09;4.65;;;1.08;;
79728;SDS011;69218;52.132;5.418;2023-08-07T01:00:36;2.80;;;0.75;;
79728;SDS011;69218;52.132;5.418;2023-08-07T01:03:05;5.70;;;0.88;;
79728;SDS011;69218;52.132;5.418;2023-08-07T01:05:33;7.05;;;1.08;;
79728;SDS011;69218;52.132;5.418;2023-08-07T01:08:00;4.50;;;0.73;;
79728;SDS011;69218;52.132;5.418;2023-08-07T01:10:36;3.75;;;1.00;;
79728;SDS011;69218;52.132;5.418;2023-08-07T01:13:10;3.80;;;0.93;;
79728;SDS011;69218;52.132;5.418;2023-08-07T01:15:45;4.90;;;1.20;;
79728;SDS011;69218;52.132;5.418;2023-08-07T01:18:15;3.63;;;0.85;;
79728;SDS011;69218;52.132;5.418;2023-08-07T01:20:42;4.50;;;1.20;;
79728;SDS011;69218;52.132;5.418;2023-08-07T01:23:08;3.83;;;0.88;;
79728;SDS011;69218;52.132;5.418;2023-08-07T01:25:35;7.47;;;1.08;;
79728;SDS011;69218;52.132;5.418;2023-08-07T01:28:17;7.53;;;1.20;;
79728;SDS011;69218;52.132;5.418;2023-08-07T01:30:54;6.15;;;1.00;;
79728;SDS011;69218;52.132;5.418;2023-08-07T01:36:01;3.72;;;0.93;;
79728;SDS011;69218;52.132;5.418;2023-08-07T01:38:31;6.45;;;1.08;;
79728;SDS011;69218;52.132;5.418;2023-08-07T01:40:58;6.30;;;1.23;;
79728;SDS011;69218;52.132;5.418;2023-08-07T01:43:27;3.45;;;0.90;;
79728;SDS011;69218;52.132;5.418;2023-08-07T01:45:53;6.20;;;1.35;;
79728;SDS011;69218;52.132;5.418;2023-08-07T01:48:20;4.20;;;1.40;;
79728;SDS011;69218;52.132;5.418;2023-08-07T01:50:49;4.95;;;1.30;;
79728;SDS011;69218;52.132;5.418;2023-08-07T01:53:16;6.60;;;1.58;;
79728;SDS011;69218;52.132;5.418;2023-08-07T01:55:42;7.45;;;1.25;;
79728;SDS011;69218;52.132;5.418;2023-08-07T01:58:09;4.00;;;0.90;;
79728;SDS011;69218;52.132;5.418;2023-08-07T02:00:35;3.92;;;1.02;;
79728;SDS011;69218;52.132;5.418;2023-08-07T02:03:01;6.05;;;1.15;;
79728;SDS011;69218;52.132;5.418;2023-08-07T02:05:28;4.32;;;1.25;;
79728;SDS011;69218;52.132;5.418;2023-08-07T02:07:55;6.38;;;1.05;;
79728;SDS011;69218;52.132;5.418;2023-08-07T02:10:23;3.88;;;1.00;;
79728;SDS011;69218;52.132;5.418;2023-08-07T02:12:49;3.42;;;0.88;;
79728;SDS011;69218;52.132;5.418;2023-08-07T02:15:16;8.43;;;1.48;;
79728;SDS011;69218;52.132;5.418;2023-08-07T02:17:42;4.38;;;1.40;;
79728;SDS011;69218;52.132;5.418;2023-08-07T02:20:09;4.95;;;0.93;;
79728;SDS011;69218;52.132;5.418;2023-08-07T02:22:36;5.78;;;1.08;;
79728;SDS011;69218;52.132;5.418;2023-08-07T02:25:03;5.38;;;1.05;;
79728;SDS011;69218;52.132;5.418;2023-08-07T02:27:30;4.47;;;1.20;;
79728;SDS011;69218;52.132;5.418;2023-08-07T02:29:56;5.10;;;1.13;;
79728;SDS011;69218;52.132;5.418;2023-08-07T02:32:23;5.18;;;1.27;;
79728;SDS011;69218;52.132;5.418;2023-08-07T02:34:49;6.13;;;1.35;;
79728;SDS011;69218;52.132;5.418;2023-08-07T02:37:16;4.15;;;1.10;;
79728;SDS011;69218;52.132;5.418;2023-08-07T02:39:43;10.90;;;1.45;;
79728;SDS011;69218;52.132;5.418;2023-08-07T02:42:09;7.40;;;1.30;;
79728;SDS011;69218;52.132;5.418;2023-08-07T02:44:36;4.78;;;1.10;;
79728;SDS011;69218;52.132;5.418;2023-08-07T02:47:02;8.93;;;1.45;;
79728;SDS011;69218;52.132;5.418;2023-08-07T02:49:29;3.97;;;0.77;;
79728;SDS011;69218;52.132;5.418;2023-08-07T02:51:56;5.82;;;1.17;;
79728;SDS011;69218;52.132;5.418;2023-08-07T02:54:22;8.75;;;1.23;;
79728;SDS011;69218;52.132;5.418;2023-08-07T02:56:49;4.15;;;0.93;;
79728;SDS011;69218;52.132;5.418;2023-08-07T02:59:15;5.38;;;1.10;;
79728;SDS011;69218;52.132;5.418;2023-08-07T03:01:43;6.07;;;1.15;;
79728;SDS011;69218;52.132;5.418;2023-08-07T03:04:10;7.25;;;1.30;;
79728;SDS011;69218;52.132;5.418;2023-08-07T03:06:37;8.45;;;1.10;;
79728;SDS011;69218;52.132;5.418;2023-08-07T03:09:03;2.92;;;0.73;;
79728;SDS011;69218;52.132;5.418;2023-08-07T03:11:30;9.98;;;1.27;;
79728;SDS011;69218;52.132;5.418;2023-08-07T03:13:56;5.72;;;1.23;;
79728;SDS011;69218;52.132;5.418;2023-08-07T03:16:23;5.13;;;0.80;;
79728;SDS011;69218;52.132;5.418;2023-08-07T03:18:49;6.88;;;1.00;;
79728;SDS011;69218;52.132;5.418;2023-08-07T03:21:16;4.65;;;0.88;;
79728;SDS011;69218;52.132;5.418;2023-08-07T03:23:42;5.80;;;0.95;;
79728;SDS011;69218;52.132;5.418;2023-08-07T03:26:10;4.97;;;0.77;;
79728;SDS011;69218;52.132;5.418;2023-08-07T03:28:44;3.83;;;0.63;;
79728;SDS011;69218;52.132;5.418;2023-08-07T03:31:13;3.30;;;0.63;;
79728;SDS011;69218;52.132;5.418;2023-08-07T03:33:39;2.75;;;0.47;;
79728;SDS011;69218;52.132;5.418;2023-08-07T03:36:06;3.58;;;1.20;;
79728;SDS011;69218;52.132;5.418;2023-08-07T03:38:33;4.25;;;0.88;;
79728;SDS011;69218;52.132;5.418;2023-08-07T03:40:59;3.83;;;0.63;;
79728;SDS011;69218;52.132;5.418;2023-08-07T03:43:26;2.72;;;0.82;;
79728;SDS011;69218;52.132;5.418;2023-08-07T03:45:55;5.00;;;0.80;;
79728;SDS011;69218;52.132;5.418;2023-08-07T03:48:28;4.15;;;0.73;;
79728;SDS011;69218;52.132;5.418;2023-08-07T03:51:04;4.00;;;0.88;;
79728;SDS011;69218;52.132;5.418;2023-08-07T03:53:32;2.55;;;0.73;;
79728;SDS011;69218;52.132;5.418;2023-08-07T03:55:58;3.67;;;0.90;;
79728;SDS011;69218;52.132;5.418;2023-08-07T03:58:25;5.60;;;0.90;;
79728;SDS011;69218;52.132;5.418;2023-08-07T04:00:52;2.58;;;0.70;;
79728;SDS011;69218;52.132;5.418;2023-08-07T04:03:21;6.18;;;1.00;;
79728;SDS011;69218;52.132;5.418;2023-08-07T04:05:52;3.35;;;0.70;;
79728;SDS011;69218;52.132;5.418;2023-08-07T04:08:20;5.47;;;0.77;;
79728;SDS011;69218;52.132;5.418;2023-08-07T04:11:02;5.63;;;1.00;;
79728;SDS011;69218;52.132;5.418;2023-08-07T04:13:30;4.57;;;0.98;;
79728;SDS011;69218;52.132;5.418;2023-08-07T04:15:57;4.85;;;1.00;;
79728;SDS011;69218;52.132;5.418;2023-08-07T04:18:24;3.45;;;1.13;;
79728;SDS011;69218;52.132;5.418;2023-08-07T04:20:54;3.67;;;0.70;;
79728;SDS011;69218;52.132;5.418;2023-08-07T04:23:21;7.93;;;0.82;;
79728;SDS011;69218;52.132;5.418;2023-08-07T04:25:49;7.13;;;0.95;;
79728;SDS011;69218;52.132;5.418;2023-08-07T04:28:16;3.67;;;0.90;;
79728;SDS011;69218;52.132;5.418;2023-08-07T04:30:43;3.75;;;0.80;;
79728;SDS011;69218;52.132;5.418;2023-08-07T04:33:11;5.78;;;1.30;;
79728;SDS011;69218;52.132;5.418;2023-08-07T04:35:39;4.65;;;0.98;;
79728;SDS011;69218;52.132;5.418;2023-08-07T04:38:06;5.30;;;0.90;;
79728;SDS011;69218;52.132;5.418;2023-08-07T04:40:32;5.38;;;0.90;;
79728;SDS011;69218;52.132;5.418;2023-08-07T04:42:59;5.45;;;0.82;;
79728;SDS011;69218;52.132;5.418;2023-08-07T04:45:25;4.43;;;0.95;;
79728;SDS011;69218;52.132;5.418;2023-08-07T04:47:52;7.30;;;1.25;;
79728;SDS011;69218;52.132;5.418;2023-08-07T04:50:18;4.10;;;0.80;;
79728;SDS011;69218;52.132;5.418;2023-08-07T04:52:45;6.53;;;1.30;;
79728;SDS011;69218;52.132;5.418;2023-08-07T04:55:11;8.57;;;1.45;;
79728;SDS011;69218;52.132;5.418;2023-08-07T04:57:38;7.43;;;1.73;;
79728;SDS011;69218;52.132;5.418;2023-08-07T05:00:05;6.15;;;1.13;;
79728;SDS011;69218;52.132;5.418;2023-08-07T05:02:32;5.15;;;1.00;;
79728;SDS011;69218;52.132;5.418;2023-08-07T05:04:58;6.72;;;1.48;;
79728;SDS011;69218;52.132;5.418;2023-08-07T05:07:25;2.92;;;0.90;;
79728;SDS011;69218;52.132;5.418;2023-08-07T05:09:52;9.35;;;1.20;;
79728;SDS011;69218;52.132;5.418;2023-08-07T05:12:18;4.60;;;1.17;;
79728;SDS011;69218;52.132;5.418;2023-08-07T05:14:45;4.85;;;1.00;;
79728;SDS011;69218;52.132;5.418;2023-08-07T05:17:11;4.55;;;1.10;;
79728;SDS011;69218;52.132;5.418;2023-08-07T05:19:39;4.35;;;1.10;;
79728;SDS011;69218;52.132;5.418;2023-08-07T05:22:05;3.60;;;0.82;;
79728;SDS011;69218;52.132;5.418;2023-08-07T05:24:32;3.08;;;0.90;;
79728;SDS011;69218;52.132;5.418;2023-08-07T05:27:05;4.95;;;0.95;;
79728;SDS011;69218;52.132;5.418;2023-08-07T05:29:35;3.58;;;0.73;;
79728;SDS011;69218;52.132;5.418;2023-08-07T05:32:13;2.58;;;1.00;;
79728;SDS011;69218;52.132;5.418;2023-08-07T05:34:40;6.22;;;0.80;;
79728;SDS011;69218;52.132;5.418;2023-08-07T05:37:07;3.17;;;0.93;;
79728;SDS011;69218;52.132;5.418;2023-08-07T05:39:34;4.15;;;0.98;;
79728;SDS011;69218;52.132;5.418;2023-08-07T05:42:02;3.70;;;0.98;;
79728;SDS011;69218;52.132;5.418;2023-08-07T05:44:29;4.07;;;1.40;;
79728;SDS011;69218;52.132;5.418;2023-08-07T05:46:56;3.95;;;0.80;;
79728;SDS011;69218;52.132;5.418;2023-08-07T05:49:22;4.28;;;0.98;;
79728;SDS011;69218;52.132;5.418;2023-08-07T05:51:51;5.95;;;0.90;;
79728;SDS011;69218;52.132;5.418;2023-08-07T05:54:21;5.63;;;1.35;;
79728;SDS011;69218;52.132;5.418;2023-08-07T05:56:48;4.30;;;1.02;;
79728;SDS011;69218;52.132;5.418;2023-08-07T05:59:14;7.05;;;1.15;;
79728;SDS011;69218;52.132;5.418;2023-08-07T06:01:41;2.88;;;0.98;;
79728;SDS011;69218;52.132;5.418;2023-08-07T06:04:08;3.75;;;0.90;;
79728;SDS011;69218;52.132;5.418;2023-08-07T06:06:35;3.67;;;0.98;;
79728;SDS011;69218;52.132;5.418;2023-08-07T06:09:02;5.40;;;1.08;;
79728;SDS011;69218;52.132;5.418;2023-08-07T06:11:30;7.68;;;1.15;;
79728;SDS011;69218;52.132;5.418;2023-08-07T06:13:56;5.80;;;1.30;;
79728;SDS011;69218;52.132;5.418;2023-08-07T06:16:23;11.38;;;1.63;;
79728;SDS011;69218;52.132;5.418;2023-08-07T06:18:51;6.45;;;1.50;;
79728;SDS011;69218;52.132;5.418;2023-08-07T06:21:17;6.63;;;1.05;;
79728;SDS011;69218;52.132;5.418;2023-08-07T06:23:47;7.35;;;1.45;;
79728;SDS011;69218;52.132;5.418;2023-08-07T06:26:13;4.68;;;1.35;;
79728;SDS011;69218;52.132;5.418;2023-08-07T06:28:40;6.57;;;1.38;;
79728;SDS011;69218;52.132;5.418;2023-08-07T06:31:08;6.20;;;1.33;;
79728;SDS011;69218;52.132;5.418;2023-08-07T06:33:36;7.90;;;1.38;;
79728;SDS011;69218;52.132;5.418;2023-08-07T06:36:03;10.20;;;1.77;;
79728;SDS011;69218;52.132;5.418;2023-08-07T06:38:30;4.65;;;0.88;;
79728;SDS011;69218;52.132;5.418;2023-08-07T06:40:57;4.68;;;1.15;;
79728;SDS011;69218;52.132;5.418;2023-08-07T06:43:24;6.68;;;1.42;;
79728;SDS011;69218;52.132;5.418;2023-08-07T06:45:50;6.45;;;1.13;;
79728;SDS011;69218;52.132;5.418;2023-08-07T06:48:18;4.32;;;1.25;;
79728;SDS011;69218;52.132;5.418;2023-08-07T06:50:47;7.20;;;1.50;;
79728;SDS011;69218;52.132;5.418;2023-08-07T06:53:17;6.63;;;1.35;;
79728;SDS011;69218;52.132;5.418;2023-08-07T06:55:45;6.03;;;1.40;;
79728;SDS011;69218;52.132;5.418;2023-08-07T06:58:12;5.90;;;1.33;;
79728;SDS011;69218;52.132;5.418;2023-08-07T07:00:38;4.28;;;0.82;;
79728;SDS011;69218;52.132;5.418;2023-08-07T07:03:06;4.63;;;1.35;;
79728;SDS011;69218;52.132;5.418;2023-08-07T07:05:34;5.90;;;1.50;;
79728;SDS011;69218;52.132;5.418;2023-08-07T07:08:00;4.05;;;1.23;;
79728;SDS011;69218;52.132;5.418;2023-08-07T07:10:27;7.47;;;1.65;;
79728;SDS011;69218;52.132;5.418;2023-08-07T07:12:54;5.40;;;1.50;;
79728;SDS011;69218;52.132;5.418;2023-08-07T07:15:23;8.68;;;1.63;;
79728;SDS011;69218;52.132;5.418;2023-08-07T07:17:50;6.70;;;1.63;;
79728;SDS011;69218;52.132;5.418;2023-08-07T07:20:16;5.20;;;1.02;;
79728;SDS011;69218;52.132;5.418;2023-08-07T07:22:43;7.13;;;1.70;;
79728;SDS011;69218;52.132;5.418;2023-08-07T07:25:09;6.70;;;1.48;;
79728;SDS011;69218;52.132;5.418;2023-08-07T07:27:36;5.30;;;1.48;;
79728;SDS011;69218;52.132;5.418;2023-08-07T07:30:03;7.38;;;1.35;;
79728;SDS011;69218;52.132;5.418;2023-08-07T07:32:30;5.97;;;1.33;;
79728;SDS011;69218;52.132;5.418;2023-08-07T07:34:56;7.18;;;1.42;;
79728;SDS011;69218;52.132;5.418;2023-08-07T07:37:23;8.57;;;1.45;;
79728;SDS011;69218;52.132;5.418;2023-08-07T07:39:49;5.28;;;1.42;;
79728;SDS011;69218;52.132;5.418;2023-08-07T07:42:16;4.38;;;1.40;;
79728;SDS011;69218;52.132;5.418;2023-08-07T07:44:42;8.52;;;1.70;;
79728;SDS011;69218;52.132;5.418;2023-08-07T07:47:09;6.65;;;1.40;;
79728;SDS011;69218;52.132;5.418;2023-08-07T07:49:39;7.50;;;1.83;;
79728;SDS011;69218;52.132;5.418;2023-08-07T07:52:05;4.32;;;1.25;;
79728;SDS011;69218;52.132;5.418;2023-08-07T07:54:33;5.47;;;1.60;;
79728;SDS011;69218;52.132;5.418;2023-08-07T07:57:01;5.55;;;1.60;;
79728;SDS011;69218;52.132;5.418;2023-08-07T07:59:27;7.82;;;1.63;;
79728;SDS011;69218;52.132;5.418;2023-08-07T08:01:54;6.05;;;1.35;;
79728;SDS011;69218;52.132;5.418;2023-08-07T08:04:21;8.55;;;1.95;;
79728;SDS011;69218;52.132;5.418;2023-08-07T08:06:48;9.20;;;1.85;;
79728;SDS011;69218;52.132;5.418;2023-08-07T08:09:15;5.43;;;1.40;;
79728;SDS011;69218;52.132;5.418;2023-08-07T08:11:41;5.00;;;1.48;;
79728;SDS011;69218;52.132;5.418;2023-08-07T08:14:08;7.35;;;1.65;;
79728;SDS011;69218;52.132;5.418;2023-08-07T08:16:35;8.38;;;1.48;;
79728;SDS011;69218;52.132;5.418;2023-08-07T08:19:01;8.13;;;1.20;;
79728;SDS011;69218;52.132;5.418;2023-08-07T08:21:28;3.97;;;1.58;;
79728;SDS011;69218;52.132;5.418;2023-08-07T08:23:56;10.90;;;1.95;;
79728;SDS011;69218;52.132;5.418;2023-08-07T08:26:23;5.88;;;1.83;;
79728;SDS011;69218;52.132;5.418;2023-08-07T08:28:49;5.50;;;1.23;;
79728;SDS011;69218;52.132;5.418;2023-08-07T08:31:16;5.30;;;1.45;;
79728;SDS011;69218;52.132;5.418;2023-08-07T08:33:42;5.65;;;1.40;;
79728;SDS011;69218;52.132;5.418;2023-08-07T08:36:09;8.25;;;1.33;;
79728;SDS011;69218;52.132;5.418;2023-08-07T08:38:35;6.03;;;1.20;;
79728;SDS011;69218;52.132;5.418;2023-08-07T08:41:02;5.15;;;1.65;;
79728;SDS011;69218;52.132;5.418;2023-08-07T08:43:30;7.57;;;1.58;;
79728;SDS011;69218;52.132;5.418;2023-08-07T08:46:00;4.90;;;1.30;;
79728;SDS011;69218;52.132;5.418;2023-08-07T08:48:27;7.15;;;1.40;;
79728;SDS011;69218;52.132;5.418;2023-08-07T08:50:57;6.50;;;1.42;;
79728;SDS011;69218;52.132;5.418;2023-08-07T08:53:24;4.72;;;1.25;;
79728;SDS011;69218;52.132;5.418;2023-08-07T08:55:51;3.63;;;1.17;;
79728;SDS011;69218;52.132;5.418;2023-08-07T08:58:18;7.20;;;1.23;;
79728;SDS011;69218;52.132;5.418;2023-08-07T09:00:48;5.68;;;1.23;;
79728;SDS011;69218;52.132;5.418;2023-08-07T09:03:16;5.88;;;1.30;;
79728;SDS011;69218;52.132;5.418;2023-08-07T09:05:45;5.18;;;1.40;;
79728;SDS011;69218;52.132;5.418;2023-08-07T09:08:13;6.97;;;1.42;;
79728;SDS011;69218;52.132;5.418;2023-08-07T09:10:40;6.82;;;1.33;;
79728;SDS011;69218;52.132;5.418;2023-08-07T09:13:08;5.88;;;1.25;;
79728;SDS011;69218;52.132;5.418;2023-08-07T09:15:40;4.85;;;1.20;;
79728;SDS011;69218;52.132;5.418;2023-08-07T09:18:13;3.47;;;1.17;;
79728;SDS011;69218;52.132;5.418;2023-08-07T09:20:41;7.70;;;1.23;;
79728;SDS011;69218;52.132;5.418;2023-08-07T09:23:08;7.38;;;1.25;;
79728;SDS011;69218;52.132;5.418;2023-08-07T09:25:35;2.92;;;1.02;;
79728;SDS011;69218;52.132;5.418;2023-08-07T09:28:03;5.82;;;1.30;;
79728;SDS011;69218;52.132;5.418;2023-08-07T09:30:31;8.02;;;1.20;;
79728;SDS011;69218;52.132;5.418;2023-08-07T09:32:59;6.47;;;1.35;;
79728;SDS011;69218;52.132;5.418;2023-08-07T09:35:27;6.25;;;1.20;;
79728;SDS011;69218;52.132;5.418;2023-08-07T09:37:58;5.95;;;1.42;;
79728;SDS011;69218;52.132;5.418;2023-08-07T09:40:25;5.40;;;1.42;;
79728;SDS011;69218;52.132;5.418;2023-08-07T09:42:52;4.60;;;0.98;;
79728;SDS011;69218;52.132;5.418;2023-08-07T09:47:47;5.53;;;1.30;;
79728;SDS011;69218;52.132;5.418;2023-08-07T09:50:23;5.88;;;1.30;;
79728;SDS011;69218;52.132;5.418;2023-08-07T09:52:51;5.93;;;1.17;;
79728;SDS011;69218;52.132;5.418;2023-08-07T09:55:17;8.38;;;1.17;;
79728;SDS011;69218;52.132;5.418;2023-08-07T09:57:44;5.72;;;1.77;;
79728;SDS011;69218;52.132;5.418;2023-08-07T10:00:12;7.00;;;1.60;;
79728;SDS011;69218;52.132;5.418;2023-08-07T10:02:41;7.80;;;1.52;;
79728;SDS011;69218;52.132;5.418;2023-08-07T10:05:10;4.80;;;1.20;;
79728;SDS011;69218;52.132;5.418;2023-08-07T10:07:37;5.18;;;1.35;;
79728;SDS011;69218;52.132;5.418;2023-08-07T10:10:04;5.07;;;1.27;;
79728;SDS011;69218;52.132;5.418;2023-08-07T10:12:33;4.78;;;1.45;;
79728;SDS011;69218;52.132;5.418;2023-08-07T10:15:00;6.40;;;1.08;;
79728;SDS011;69218;52.132;5.418;2023-08-07T10:17:27;5.03;;;1.27;;
79728;SDS011;69218;52.132;5.418;2023-08-07T10:19:54;6.57;;;1.33;;
79728;SDS011;69218;52.132;5.418;2023-08-07T10:22:20;6.18;;;1.13;;
79728;SDS011;69218;52.132;5.418;2023-08-07T10:24:51;4.35;;;1.23;;
79728;SDS011;69218;52.132;5.418;2023-08-07T10:27:20;5.53;;;1.05;;
79728;SDS011;69218;52.132;5.418;2023-08-07T10:29:49;6.25;;;1.20;;
79728;SDS011;69218;52.132;5.418;2023-08-07T10:32:18;4.28;;;1.10;;
79728;SDS011;69218;52.132;5.418;2023-08-07T10:37:32;6.35;;;1.25;;
79728;SDS011;69218;52.132;5.418;2023-08-07T10:40:02;5.32;;;0.80;;
79728;SDS011;69218;52.132;5.418;2023-08-07T10:45:27;3.45;;;0.80;;
79728;SDS011;69218;52.132;5.418;2023-08-07T10:48:01;3.95;;;1.08;;
79728;SDS011;69218;52.132;5.418;2023-08-07T10:50:31;3.85;;;1.35;;
79728;SDS011;69218;52.132;5.418;2023-08-07T10:53:01;5.88;;;1.00;;
79728;SDS011;69218;52.132;5.418;2023-08-07T10:55:45;4.15;;;1.45;;
79728;SDS011;69218;52.132;5.418;2023-08-07T10:58:32;7.95;;;1.50;;
79728;SDS011;69218;52.132;5.418;2023-08-07T11:06:34;5.88;;;2.03;;
79728;SDS011;69218;52.132;5.418;2023-08-07T11:11:37;5.65;;;1.23;;
79728;SDS011;69218;52.132;5.418;2023-08-07T11:14:08;3.50;;;0.82;;
79728;SDS011;69218;52.132;5.418;2023-08-07T11:19:08;3.75;;;1.10;;
79728;SDS011;69218;52.132;5.418;2023-08-07T11:21:36;3.75;;;1.00;;
79728;SDS011;69218;52.132;5.418;2023-08-07T11:24:03;3.15;;;1.02;;
79728;SDS011;69218;52.132;5.418;2023-08-07T11:26:30;3.88;;;0.85;;
79728;SDS011;69218;52.132;5.418;2023-08-07T11:28:57;2.97;;;1.33;;
79728;SDS011;69218;52.132;5.418;2023-08-07T11:31:24;4.18;;;0.95;;
79728;SDS011;69218;52.132;5.418;2023-08-07T11:33:51;4.25;;;0.90;;
79728;SDS011;69218;52.132;5.418;2023-08-07T11:36:21;3.78;;;1.00;;
79728;SDS011;69218;52.132;5.418;2023-08-07T11:38:48;10.73;;;1.55;;
79728;SDS011;69218;52.132;5.418;2023-08-07T11:41:16;5.28;;;1.27;;
79728;SDS011;69218;52.132;5.418;2023-08-07T11:43:47;8.82;;;1.50;;
79728;SDS011;69218;52.132;5.418;2023-08-07T11:46:14;6.15;;;1.20;;
79728;SDS011;69218;52.132;5.418;2023-08-07T11:48:43;3.83;;;0.85;;
79728;SDS011;69218;52.132;5.418;2023-08-07T11:51:10;8.20;;;1.80;;
79728;SDS011;69218;52.132;5.418;2023-08-07T11:53:38;6.68;;;1.38;;
79728;SDS011;69218;52.132;5.418;2023-08-07T11:56:10;5.28;;;1.30;;
79728;SDS011;69218;52.132;5.418;2023-08-07T11:58:45;5.80;;;1.30;;
79728;SDS011;69218;52.132;5.418;2023-08-07T12:01:18;6.68;;;1.23;;
79728;SDS011;69218;52.132;5.418;2023-08-07T12:04:08;4.50;;;1.42;;
79728;SDS011;69218;52.132;5.418;2023-08-07T12:06:36;5.53;;;1.17;;
79728;SDS011;69218;52.132;5.418;2023-08-07T12:09:05;3.47;;;1.13;;
79728;SDS011;69218;52.132;5.418;2023-08-07T12:11:38;3.85;;;1.02;;
79728;SDS011;69218;52.132;5.418;2023-08-07T12:14:05;3.80;;;1.08;;
79728;SDS011;69218;52.132;5.418;2023-08-07T12:16:32;6.00;;;0.93;;
79728;SDS011;69218;52.132;5.418;2023-08-07T12:19:00;4.53;;;1.48;;
79728;SDS011;69218;52.132;5.418;2023-08-07T12:21:28;7.03;;;2.00;;
79728;SDS011;69218;52.132;5.418;2023-08-07T12:23:55;4.15;;;1.20;;
79728;SDS011;69218;52.132;5.418;2023-08-07T12:26:22;3.30;;;0.82;;
79728;SDS011;69218;52.132;5.418;2023-08-07T12:28:49;4.15;;;1.02;;
79728;SDS011;69218;52.132;5.418;2023-08-07T12:31:17;2.95;;;0.82;;
79728;SDS011;69218;52.132;5.418;2023-08-07T12:33:44;4.95;;;1.20;;
79728;SDS011;69218;52.132;5.418;2023-08-07T12:36:10;3.35;;;0.88;;
79728;SDS011;69218;52.132;5.418;2023-08-07T12:38:42;4.28;;;0.77;;
79728;SDS011;69218;52.132;5.418;2023-08-07T12:41:08;4.07;;;1.02;;
79728;SDS011;69218;52.132;5.418;2023-08-07T12:43:55;4.82;;;0.57;;
79728;SDS011;69218;52.132;5.418;2023-08-07T12:46:22;4.25;;;1.05;;
79728;SDS011;69218;52.132;5.418;2023-08-07T12:48:51;4.45;;;0.98;;
79728;SDS011;69218;52.132;5.418;2023-08-07T12:51:17;4.22;;;0.85;;
79728;SDS011;69218;52.132;5.418;2023-08-07T12:53:44;4.72;;;1.02;;
79728;SDS011;69218;52.132;5.418;2023-08-07T12:56:11;4.43;;;1.02;;
79728;SDS011;69218;52.132;5.418;2023-08-07T12:58:38;2.25;;;0.68;;
79728;SDS011;69218;52.132;5.418;2023-08-07T13:01:08;3.20;;;0.93;;
79728;SDS011;69218;52.132;5.418;2023-08-07T13:03:35;3.05;;;0.65;;
79728;SDS011;69218;52.132;5.418;2023-08-07T13:06:02;2.65;;;0.63;;
79728;SDS011;69218;52.132;5.418;2023-08-07T13:08:31;5.00;;;0.80;;
79728;SDS011;69218;52.132;5.418;2023-08-07T13:10:59;4.18;;;1.00;;
79728;SDS011;69218;52.132;5.418;2023-08-07T13:13:26;2.88;;;0.80;;
79728;SDS011;69218;52.132;5.418;2023-08-07T13:15:54;3.40;;;0.77;;
79728;SDS011;69218;52.132;5.418;2023-08-07T13:18:21;6.72;;;1.13;;
79728;SDS011;69218;52.132;5.418;2023-08-07T13:20:47;3.92;;;1.10;;
79728;SDS011;69218;52.132;5.418;2023-08-07T13:23:14;7.07;;;0.80;;
79728;SDS011;69218;52.132;5.418;2023-08-07T13:25:40;4.78;;;0.70;;
79728;SDS011;69218;52.132;5.418;2023-08-07T13:28:07;4.00;;;0.55;;
79728;SDS011;69218;52.132;5.418;2023-08-07T13:30:33;3.75;;;0.80;;
79728;SDS011;69218;52.132;5.418;2023-08-07T13:33:03;3.70;;;0.88;;
79728;SDS011;69218;52.132;5.418;2023-08-07T13:35:29;3.58;;;0.80;;
79728;SDS011;69218;52.132;5.418;2023-08-07T13:37:57;4.18;;;0.70;;
79728;SDS011;69218;52.132;5.418;2023-08-07T13:40:23;5.45;;;1.10;;
79728;SDS011;69218;52.132;5.418;2023-08-07T13:42:50;3.40;;;0.80;;
79728;SDS011;69218;52.132;5.418;2023-08-07T13:45:16;2.83;;;0.73;;
79728;SDS011;69218;52.132;5.418;2023-08-07T13:47:43;3.53;;;0.77;;
79728;SDS011;69218;52.132;5.418;2023-08-07T13:50:10;4.57;;;0.80;;
79728;SDS011;69218;52.132;5.418;2023-08-07T13:52:39;2.38;;;0.55;;
79728;SDS011;69218;52.132;5.418;2023-08-07T13:55:05;4.28;;;0.63;;
79728;SDS011;69218;52.132;5.418;2023-08-07T13:57:32;3.47;;;0.90;;
79728;SDS011;69218;52.132;5.418;2023-08-07T14:00:00;2.90;;;0.60;;
79728;SDS011;69218;52.132;5.418;2023-08-07T14:02:26;5.20;;;0.70;;
79728;SDS011;69218;52.132;5.418;2023-08-07T14:04:53;4.47;;;0.60;;
79728;SDS011;69218;52.132;5.418;2023-08-07T14:07:19;2.33;;;0.65;;
79728;SDS011;69218;52.132;5.418;2023-08-07T14:09:46;2.60;;;0.50;;
79728;SDS011;69218;52.132;5.418;2023-08-07T14:12:12;2.17;;;1.00;;
79728;SDS011;69218;52.132;5.418;2023-08-07T14:14:39;2.30;;;0.57;;
79728;SDS011;69218;52.132;5.418;2023-08-07T14:17:05;4.45;;;0.90;;
79728;SDS011;69218;52.132;5.418;2023-08-07T14:19:32;4.68;;;0.73;;
79728;SDS011;69218;52.132;5.418;2023-08-07T14:21:58;3.47;;;0.77;;
79728;SDS011;69218;52.132;5.418;2023-08-07T14:24:25;3.60;;;0.60;;
79728;SDS011;69218;52.132;5.418;2023-08-07T14:26:52;2.45;;;0.63;;
79728;SDS011;69218;52.132;5.418;2023-08-07T14:29:19;3.05;;;0.63;;
79728;SDS011;69218;52.132;5.418;2023-08-07T14:31:46;3.90;;;1.08;;
79728;SDS011;69218;52.132;5.418;2023-08-07T14:34:12;2.28;;;0.73;;
79728;SDS011;69218;52.132;5.418;2023-08-07T14:36:39;3.33;;;0.75;;
79728;SDS011;69218;52.132;5.418;2023-08-07T14:39:06;2.58;;;0.65;;
79728;SDS011;69218;52.132;5.418;2023-08-07T14:41:33;2.50;;;0.80;;
79728;SDS011;69218;52.132;5.418;2023-08-07T14:43:59;2.33;;;0.63;;
79728;SDS011;69218;52.132;5.418;2023-08-07T14:46:26;4.45;;;0.90;;
79728;SDS011;69218;52.132;5.418;2023-08-07T14:48:53;3.38;;;0.85;;
79728;SDS011;69218;52.132;5.418;2023-08-07T14:51:21;3.70;;;1.00;;
79728;SDS011;69218;52.132;5.418;2023-08-07T14:53:48;3.38;;;0.77;;
79728;SDS011;69218;52.132;5.418;2023-08-07T14:56:15;3.00;;;1.02;;
79728;SDS011;69218;52.132;5.418;2023-08-07T14:58:41;2.90;;;0.73;;
79728;SDS011;69218;52.132;5.418;2023-08-07T15:01:08;3.35;;;0.73;;
79728;SDS011;69218;52.132;5.418;2023-08-07T15:03:34;2.33;;;0.65;;
79728;SDS011;69218;52.132;5.418;2023-08-07T15:06:01;2.80;;;0.70;;
79728;SDS011;69218;52.132;5.418;2023-08-07T15:08:27;3.65;;;0.82;;
79728;SDS011;69218;52.132;5.418;2023-08-07T15:10:54;3.42;;;0.93;;
79728;SDS011;69218;52.132;5.418;2023-08-07T15:13:20;3.05;;;1.08;;